Albany, Pennsylvania
Current Conditions -  °F | °C
As of 8:54 AM on Thursday 27 Nov 2014 (Local Time) from KRDG Reporting Station
Broken Clouds Broken Clouds  
Wind Chill: 31°   Ceiling: 7000
Heat Index: 37°   Visibility: 10mi
Dew Point: 28°   Wind: 8mph
Humidity: 70%   Direction: 300°WNW
Pressure: 30.01"   Gusts: NA
Location:  40.6329°N, 75.8768°W
Report Text: KRDG 271354Z 30007KT 10SM BKN070 03/M02 A3001 RMK AO2 SLP171 T00281022
Loading
Personal Weather Stations






























Interactive Weather Map New forecast layout! Learn more

10-Day Weather Forecast

Advertisements
Track Severe Weather on mobile